sensor_id;sensor_type;location;lat;lon;timestamp;temperature;humidity
1137;DHT22;557;48.466;7.950;2022-12-11T00:01:32;1.00;99.90
1137;DHT22;557;48.466;7.950;2022-12-11T00:04:17;1.00;99.90
1137;DHT22;557;48.466;7.950;2022-12-11T00:07:03;1.10;99.90
1137;DHT22;557;48.466;7.950;2022-12-11T00:13:28;1.10;99.90
1137;DHT22;557;48.466;7.950;2022-12-11T00:16:14;1.10;99.90
1137;DHT22;557;48.466;7.950;2022-12-11T00:18:59;1.10;99.90
1137;DHT22;557;48.466;7.950;2022-12-11T00:21:44;1.00;99.90
1137;DHT22;557;48.466;7.950;2022-12-11T00:24:30;1.00;99.90
1137;DHT22;557;48.466;7.950;2022-12-11T00:27:36;1.00;99.90
1137;DHT22;557;48.466;7.950;2022-12-11T00:30:37;1.00;99.90
1137;DHT22;557;48.466;7.950;2022-12-11T00:33:25;1.00;99.90
1137;DHT22;557;48.466;7.950;2022-12-11T00:36:12;1.00;99.90
1137;DHT22;557;48.466;7.950;2022-12-11T00:38:59;1.00;99.90
1137;DHT22;557;48.466;7.950;2022-12-11T00:41:45;1.00;99.90
1137;DHT22;557;48.466;7.950;2022-12-11T00:45:33;1.00;99.90
1137;DHT22;557;48.466;7.950;2022-12-11T00:49:02;0.90;99.90
1137;DHT22;557;48.466;7.950;2022-12-11T00:51:47;0.90;99.90
1137;DHT22;557;48.466;7.950;2022-12-11T00:54:33;0.90;99.90
1137;DHT22;557;48.466;7.950;2022-12-11T00:57:19;0.90;99.90
1137;DHT22;557;48.466;7.950;2022-12-11T01:00:06;0.90;99.90
1137;DHT22;557;48.466;7.950;2022-12-11T01:03:08;0.80;99.90
1137;DHT22;557;48.466;7.950;2022-12-11T01:05:55;0.80;99.90
1137;DHT22;557;48.466;7.950;2022-12-11T01:08:41;0.80;99.90
1137;DHT22;557;48.466;7.950;2022-12-11T01:11:28;0.80;99.90
1137;DHT22;557;48.466;7.950;2022-12-11T01:14:13;0.80;99.90
1137;DHT22;557;48.466;7.950;2022-12-11T01:16:58;0.70;99.90
1137;DHT22;557;48.466;7.950;2022-12-11T01:19:44;0.70;99.90
1137;DHT22;557;48.466;7.950;2022-12-11T01:22:31;0.70;99.90
1137;DHT22;557;48.466;7.950;2022-12-11T01:25:17;0.70;99.90
1137;DHT22;557;48.466;7.950;2022-12-11T01:28:04;0.70;99.90
1137;DHT22;557;48.466;7.950;2022-12-11T01:30:50;0.60;99.90
1137;DHT22;557;48.466;7.950;2022-12-11T01:33:35;0.50;99.90
1137;DHT22;557;48.466;7.950;2022-12-11T01:36:21;0.50;99.90
1137;DHT22;557;48.466;7.950;2022-12-11T01:39:08;0.50;99.90
1137;DHT22;557;48.466;7.950;2022-12-11T01:41:56;0.40;99.90
1137;DHT22;557;48.466;7.950;2022-12-11T01:48:13;0.30;99.90
1137;DHT22;557;48.466;7.950;2022-12-11T01:51:02;0.30;99.90
1137;DHT22;557;48.466;7.950;2022-12-11T01:53:52;0.20;99.90
1137;DHT22;557;48.466;7.950;2022-12-11T01:56:42;0.20;99.90
1137;DHT22;557;48.466;7.950;2022-12-11T01:59:31;0.10;99.90
1137;DHT22;557;48.466;7.950;2022-12-11T02:02:19;0.10;99.90
1137;DHT22;557;48.466;7.950;2022-12-11T02:05:07;0.00;99.90
1137;DHT22;557;48.466;7.950;2022-12-11T02:07:55;0.00;99.90
1137;DHT22;557;48.466;7.950;2022-12-11T02:10:48;0.00;99.90
1137;DHT22;557;48.466;7.950;2022-12-11T02:13:45;0.00;99.90
1137;DHT22;557;48.466;7.950;2022-12-11T02:16:38;0.00;99.90
1137;DHT22;557;48.466;7.950;2022-12-11T02:19:43;0.00;99.90
1137;DHT22;557;48.466;7.950;2022-12-11T02:22:45;0.00;99.90
1137;DHT22;557;48.466;7.950;2022-12-11T02:25:40;0.00;99.90
1137;DHT22;557;48.466;7.950;2022-12-11T02:28:35;0.00;99.90
1137;DHT22;557;48.466;7.950;2022-12-11T02:31:26;0.00;99.90
1137;DHT22;557;48.466;7.950;2022-12-11T02:34:15;0.00;99.90
1137;DHT22;557;48.466;7.950;2022-12-11T02:37:05;0.00;99.90
1137;DHT22;557;48.466;7.950;2022-12-11T02:39:53;0.00;99.90
1137;DHT22;557;48.466;7.950;2022-12-11T02:42:41;-0.10;99.90
1137;DHT22;557;48.466;7.950;2022-12-11T02:45:30;0.00;99.90
1137;DHT22;557;48.466;7.950;2022-12-11T02:48:17;-0.10;99.90
1137;DHT22;557;48.466;7.950;2022-12-11T02:51:04;-0.10;99.90
1137;DHT22;557;48.466;7.950;2022-12-11T02:53:53;-0.10;99.90
1137;DHT22;557;48.466;7.950;2022-12-11T02:56:43;-0.10;99.90
1137;DHT22;557;48.466;7.950;2022-12-11T02:59:35;-0.20;99.90
1137;DHT22;557;48.466;7.950;2022-12-11T03:02:22;-0.20;99.90
1137;DHT22;557;48.466;7.950;2022-12-11T03:05:09;-0.20;99.90
1137;DHT22;557;48.466;7.950;2022-12-11T03:07:55;-0.20;99.90
1137;DHT22;557;48.466;7.950;2022-12-11T03:10:40;-0.20;99.90
1137;DHT22;557;48.466;7.950;2022-12-11T03:13:26;-0.20;99.90
1137;DHT22;557;48.466;7.950;2022-12-11T03:16:16;-0.20;99.90
1137;DHT22;557;48.466;7.950;2022-12-11T03:19:16;-0.20;99.90
1137;DHT22;557;48.466;7.950;2022-12-11T03:22:08;-0.10;99.90
1137;DHT22;557;48.466;7.950;2022-12-11T03:24:59;-0.10;99.90
1137;DHT22;557;48.466;7.950;2022-12-11T03:27:49;-0.20;99.90
1137;DHT22;557;48.466;7.950;2022-12-11T03:30:39;-0.20;99.90
1137;DHT22;557;48.466;7.950;2022-12-11T03:33:28;-0.20;99.90
1137;DHT22;557;48.466;7.950;2022-12-11T03:36:21;-0.20;99.90
1137;DHT22;557;48.466;7.950;2022-12-11T03:39:12;-0.30;99.90
1137;DHT22;557;48.466;7.950;2022-12-11T03:42:01;-0.20;99.90
1137;DHT22;557;48.466;7.950;2022-12-11T03:44:49;-0.20;99.90
1137;DHT22;557;48.466;7.950;2022-12-11T03:47:37;-0.30;99.90
1137;DHT22;557;48.466;7.950;2022-12-11T03:50:25;-0.30;99.90
1137;DHT22;557;48.466;7.950;2022-12-11T03:53:14;-0.20;99.90
1137;DHT22;557;48.466;7.950;2022-12-11T03:56:02;-0.20;99.90
1137;DHT22;557;48.466;7.950;2022-12-11T03:58:48;-0.30;99.90
1137;DHT22;557;48.466;7.950;2022-12-11T04:01:34;-0.20;99.90
1137;DHT22;557;48.466;7.950;2022-12-11T04:04:20;-0.30;99.90
1137;DHT22;557;48.466;7.950;2022-12-11T04:07:05;-0.40;99.90
1137;DHT22;557;48.466;7.950;2022-12-11T04:09:53;-0.40;99.90
1137;DHT22;557;48.466;7.950;2022-12-11T04:12:38;-0.50;99.90
1137;DHT22;557;48.466;7.950;2022-12-11T04:15:24;-0.60;99.90
1137;DHT22;557;48.466;7.950;2022-12-11T04:18:09;-0.60;99.90
1137;DHT22;557;48.466;7.950;2022-12-11T04:21:20;-0.60;99.90
1137;DHT22;557;48.466;7.950;2022-12-11T04:24:24;-0.60;99.90
1137;DHT22;557;48.466;7.950;2022-12-11T04:27:10;-0.70;99.90
1137;DHT22;557;48.466;7.950;2022-12-11T04:29:56;-0.70;99.90
1137;DHT22;557;48.466;7.950;2022-12-11T04:32:42;-0.70;99.90
1137;DHT22;557;48.466;7.950;2022-12-11T04:35:30;-0.70;99.90
1137;DHT22;557;48.466;7.950;2022-12-11T04:38:15;-0.80;99.90
1137;DHT22;557;48.466;7.950;2022-12-11T04:41:03;-0.80;99.90
1137;DHT22;557;48.466;7.950;2022-12-11T04:43:50;-0.80;99.90
1137;DHT22;557;48.466;7.950;2022-12-11T04:46:35;-0.90;99.90
1137;DHT22;557;48.466;7.950;2022-12-11T04:49:21;-0.80;99.90
1137;DHT22;557;48.466;7.950;2022-12-11T04:52:06;-0.80;99.90
1137;DHT22;557;48.466;7.950;2022-12-11T04:54:52;-0.80;99.90
1137;DHT22;557;48.466;7.950;2022-12-11T04:57:38;-0.80;99.90
1137;DHT22;557;48.466;7.950;2022-12-11T05:00:25;-0.80;99.90
1137;DHT22;557;48.466;7.950;2022-12-11T05:03:10;-0.80;99.90
1137;DHT22;557;48.466;7.950;2022-12-11T05:05:56;-0.70;99.90
1137;DHT22;557;48.466;7.950;2022-12-11T05:08:41;-0.60;99.90
1137;DHT22;557;48.466;7.950;2022-12-11T05:11:28;-0.60;99.90
1137;DHT22;557;48.466;7.950;2022-12-11T05:14:14;-0.60;99.90
1137;DHT22;557;48.466;7.950;2022-12-11T05:17:00;-0.60;99.90
1137;DHT22;557;48.466;7.950;2022-12-11T05:19:46;-0.60;99.90
1137;DHT22;557;48.466;7.950;2022-12-11T05:22:33;-0.50;99.90
1137;DHT22;557;48.466;7.950;2022-12-11T05:25:18;-0.60;99.90
1137;DHT22;557;48.466;7.950;2022-12-11T05:28:04;-0.60;99.90
1137;DHT22;557;48.466;7.950;2022-12-11T05:30:54;-0.60;99.90
1137;DHT22;557;48.466;7.950;2022-12-11T05:33:41;-0.50;99.90
1137;DHT22;557;48.466;7.950;2022-12-11T05:36:29;-0.50;99.90
1137;DHT22;557;48.466;7.950;2022-12-11T05:39:15;-0.60;99.90
1137;DHT22;557;48.466;7.950;2022-12-11T05:42:01;-0.50;99.90
1137;DHT22;557;48.466;7.950;2022-12-11T05:44:48;-0.50;99.90
1137;DHT22;557;48.466;7.950;2022-12-11T05:47:34;-0.60;99.90
1137;DHT22;557;48.466;7.950;2022-12-11T05:50:20;-0.70;99.90
1137;DHT22;557;48.466;7.950;2022-12-11T05:53:06;-0.80;99.90
1137;DHT22;557;48.466;7.950;2022-12-11T05:55:52;-0.90;99.90
1137;DHT22;557;48.466;7.950;2022-12-11T05:58:38;-1.10;99.90
1137;DHT22;557;48.466;7.950;2022-12-11T06:01:25;-1.10;99.90
1137;DHT22;557;48.466;7.950;2022-12-11T06:04:12;-1.10;99.90
1137;DHT22;557;48.466;7.950;2022-12-11T06:06:59;-1.10;99.90
1137;DHT22;557;48.466;7.950;2022-12-11T06:09:45;-1.20;99.90
1137;DHT22;557;48.466;7.950;2022-12-11T06:12:30;-1.20;99.90
1137;DHT22;557;48.466;7.950;2022-12-11T06:15:16;-1.20;99.90
1137;DHT22;557;48.466;7.950;2022-12-11T06:18:01;-1.10;99.90
1137;DHT22;557;48.466;7.950;2022-12-11T06:20:47;-1.20;99.90
1137;DHT22;557;48.466;7.950;2022-12-11T06:23:33;-1.20;99.90
1137;DHT22;557;48.466;7.950;2022-12-11T06:26:20;-1.20;99.90
1137;DHT22;557;48.466;7.950;2022-12-11T06:29:06;-1.30;99.90
1137;DHT22;557;48.466;7.950;2022-12-11T06:31:51;-1.20;99.90
1137;DHT22;557;48.466;7.950;2022-12-11T06:34:39;-1.20;99.90
1137;DHT22;557;48.466;7.950;2022-12-11T06:37:24;-1.20;99.90
1137;DHT22;557;48.466;7.950;2022-12-11T06:40:11;-1.20;99.90
1137;DHT22;557;48.466;7.950;2022-12-11T06:42:57;-1.30;99.90
1137;DHT22;557;48.466;7.950;2022-12-11T06:45:45;-1.30;99.90
1137;DHT22;557;48.466;7.950;2022-12-11T06:48:31;-1.30;99.90
1137;DHT22;557;48.466;7.950;2022-12-11T06:51:20;-1.30;99.90
1137;DHT22;557;48.466;7.950;2022-12-11T06:54:06;-1.20;99.90
1137;DHT22;557;48.466;7.950;2022-12-11T06:56:52;-1.10;99.90
1137;DHT22;557;48.466;7.950;2022-12-11T06:59:39;-1.10;99.90
1137;DHT22;557;48.466;7.950;2022-12-11T07:02:24;-1.10;99.90
1137;DHT22;557;48.466;7.950;2022-12-11T07:05:09;-1.10;99.90
1137;DHT22;557;48.466;7.950;2022-12-11T07:07:56;-1.00;99.90
1137;DHT22;557;48.466;7.950;2022-12-11T07:10:45;-1.00;99.90
1137;DHT22;557;48.466;7.950;2022-12-11T07:13:32;-0.90;99.90
1137;DHT22;557;48.466;7.950;2022-12-11T07:16:18;-0.90;99.90
1137;DHT22;557;48.466;7.950;2022-12-11T07:19:04;-0.90;99.90
1137;DHT22;557;48.466;7.950;2022-12-11T07:21:49;-0.90;99.90
1137;DHT22;557;48.466;7.950;2022-12-11T07:24:35;-1.00;99.90
1137;DHT22;557;48.466;7.950;2022-12-11T13:29:34;1.20;1.00
1137;DHT22;557;48.466;7.950;2022-12-11T13:32:21;1.00;1.00
1137;DHT22;557;48.466;7.950;2022-12-11T13:35:14;0.90;1.00
1137;DHT22;557;48.466;7.950;2022-12-11T13:38:05;0.90;14.50
1137;DHT22;557;48.466;7.950;2022-12-11T13:40:54;0.90;23.90
1137;DHT22;557;48.466;7.950;2022-12-11T13:43:42;0.90;5.20
1137;DHT22;557;48.466;7.950;2022-12-11T13:46:35;0.90;10.50
1137;DHT22;557;48.466;7.950;2022-12-11T13:49:23;0.90;18.40
1137;DHT22;557;48.466;7.950;2022-12-11T13:52:17;0.80;10.20
1137;DHT22;557;48.466;7.950;2022-12-11T13:55:16;0.60;22.30
1137;DHT22;557;48.466;7.950;2022-12-11T13:58:14;0.60;40.90
1137;DHT22;557;48.466;7.950;2022-12-11T14:01:05;0.50;36.60
1137;DHT22;557;48.466;7.950;2022-12-11T14:03:55;0.50;44.70
1137;DHT22;557;48.466;7.950;2022-12-11T14:06:41;0.40;25.60
1137;DHT22;557;48.466;7.950;2022-12-11T14:09:27;0.30;34.90
1137;DHT22;557;48.466;7.950;2022-12-11T14:12:15;0.30;43.30
1137;DHT22;557;48.466;7.950;2022-12-11T14:15:03;0.20;47.30
1137;DHT22;557;48.466;7.950;2022-12-11T14:17:49;0.20;35.80
1137;DHT22;557;48.466;7.950;2022-12-11T14:20:35;0.20;40.30
1137;DHT22;557;48.466;7.950;2022-12-11T14:23:24;0.20;37.50
1137;DHT22;557;48.466;7.950;2022-12-11T14:26:23;0.20;34.70
1137;DHT22;557;48.466;7.950;2022-12-11T14:29:23;0.10;44.20
1137;DHT22;557;48.466;7.950;2022-12-11T14:32:17;0.20;68.90
1137;DHT22;557;48.466;7.950;2022-12-11T14:35:06;0.30;42.40
1137;DHT22;557;48.466;7.950;2022-12-11T14:38:01;0.30;32.60
1137;DHT22;557;48.466;7.950;2022-12-11T14:40:52;0.30;42.80
1137;DHT22;557;48.466;7.950;2022-12-11T14:43:43;0.30;26.30
1137;DHT22;557;48.466;7.950;2022-12-11T14:46:36;0.20;24.80
1137;DHT22;557;48.466;7.950;2022-12-11T14:49:28;0.10;37.60
1137;DHT22;557;48.466;7.950;2022-12-11T14:52:19;0.10;31.80
1137;DHT22;557;48.466;7.950;2022-12-11T14:55:11;0.10;56.40
1137;DHT22;557;48.466;7.950;2022-12-11T14:58:02;0.30;97.20
1137;DHT22;557;48.466;7.950;2022-12-11T15:00:56;0.40;53.40
1137;DHT22;557;48.466;7.950;2022-12-11T15:03:42;0.40;16.10
1137;DHT22;557;48.466;7.950;2022-12-11T15:06:30;0.40;5.80
1137;DHT22;557;48.466;7.950;2022-12-11T15:09:20;0.30;5.80
1137;DHT22;557;48.466;7.950;2022-12-11T15:12:11;0.20;16.40
1137;DHT22;557;48.466;7.950;2022-12-11T15:15:01;0.10;27.80
1137;DHT22;557;48.466;7.950;2022-12-11T15:17:50;0.20;48.30
1137;DHT22;557;48.466;7.950;2022-12-11T15:20:36;0.20;34.60
1137;DHT22;557;48.466;7.950;2022-12-11T15:23:22;0.20;38.60
1137;DHT22;557;48.466;7.950;2022-12-11T15:26:07;0.30;45.20
1137;DHT22;557;48.466;7.950;2022-12-11T15:29:00;0.20;8.80
1137;DHT22;557;48.466;7.950;2022-12-11T15:31:46;0.20;13.70
1137;DHT22;557;48.466;7.950;2022-12-11T15:34:44;0.20;18.80
1137;DHT22;557;48.466;7.950;2022-12-11T15:37:31;0.10;18.50
1137;DHT22;557;48.466;7.950;2022-12-11T15:40:19;0.10;28.80
1137;DHT22;557;48.466;7.950;2022-12-11T15:43:04;0.00;3.00
1137;DHT22;557;48.466;7.950;2022-12-11T15:45:51;-0.10;1.00
1137;DHT22;557;48.466;7.950;2022-12-11T15:48:37;0.00;13.50
1137;DHT22;557;48.466;7.950;2022-12-11T15:51:22;0.00;14.10
1137;DHT22;557;48.466;7.950;2022-12-11T15:54:10;0.00;20.70
1137;DHT22;557;48.466;7.950;2022-12-11T15:56:56;0.10;20.10
1137;DHT22;557;48.466;7.950;2022-12-11T15:59:43;0.10;14.00
1137;DHT22;557;48.466;7.950;2022-12-11T16:02:33;0.00;24.30
1137;DHT22;557;48.466;7.950;2022-12-11T16:05:18;0.10;19.20
1137;DHT22;557;48.466;7.950;2022-12-11T16:08:05;0.10;12.70
1137;DHT22;557;48.466;7.950;2022-12-11T16:10:52;0.00;18.20
1137;DHT22;557;48.466;7.950;2022-12-11T16:13:38;-0.10;38.70
1137;DHT22;557;48.466;7.950;2022-12-11T16:16:24;0.00;48.70
1137;DHT22;557;48.466;7.950;2022-12-11T16:19:11;0.00;43.80
1137;DHT22;557;48.466;7.950;2022-12-11T16:21:57;0.00;38.50
1137;DHT22;557;48.466;7.950;2022-12-11T16:24:43;-0.10;40.60
1137;DHT22;557;48.466;7.950;2022-12-11T16:27:29;0.00;52.40
1137;DHT22;557;48.466;7.950;2022-12-11T16:30:14;0.00;49.50
1137;DHT22;557;48.466;7.950;2022-12-11T16:32:59;0.00;67.40
1137;DHT22;557;48.466;7.950;2022-12-11T16:35:46;0.00;40.20
1137;DHT22;557;48.466;7.950;2022-12-11T16:38:38;0.00;27.60
1137;DHT22;557;48.466;7.950;2022-12-11T16:41:25;0.00;23.40
1137;DHT22;557;48.466;7.950;2022-12-11T16:44:11;-0.10;12.50
1137;DHT22;557;48.466;7.950;2022-12-11T16:46:57;-0.10;27.20
1137;DHT22;557;48.466;7.950;2022-12-11T16:49:42;-0.10;39.90
1137;DHT22;557;48.466;7.950;2022-12-11T16:52:31;0.10;32.70
1137;DHT22;557;48.466;7.950;2022-12-11T16:55:18;0.10;28.30
1137;DHT22;557;48.466;7.950;2022-12-11T16:58:06;0.20;1.00
1137;DHT22;557;48.466;7.950;2022-12-11T17:00:51;0.20;1.00
1137;DHT22;557;48.466;7.950;2022-12-11T17:03:45;0.10;1.00
1137;DHT22;557;48.466;7.950;2022-12-11T17:06:32;0.10;1.00
1137;DHT22;557;48.466;7.950;2022-12-11T17:09:19;0.10;19.00
1137;DHT22;557;48.466;7.950;2022-12-11T17:12:05;0.10;4.70
1137;DHT22;557;48.466;7.950;2022-12-11T17:14:50;0.00;2.20
1137;DHT22;557;48.466;7.950;2022-12-11T17:17:36;0.10;11.60
1137;DHT22;557;48.466;7.950;2022-12-11T17:20:21;0.10;10.20
1137;DHT22;557;48.466;7.950;2022-12-11T17:23:07;0.10;11.90
1137;DHT22;557;48.466;7.950;2022-12-11T17:25:55;0.10;29.40
1137;DHT22;557;48.466;7.950;2022-12-11T17:28:41;0.10;34.90
1137;DHT22;557;48.466;7.950;2022-12-11T17:31:27;0.20;1.00
1137;DHT22;557;48.466;7.950;2022-12-11T17:34:12;0.10;1.00
1137;DHT22;557;48.466;7.950;2022-12-11T17:37:00;0.10;1.00
1137;DHT22;557;48.466;7.950;2022-12-11T17:39:48;0.10;1.00
1137;DHT22;557;48.466;7.950;2022-12-11T17:42:35;0.10;18.80
1137;DHT22;557;48.466;7.950;2022-12-11T17:45:21;0.10;43.50
1137;DHT22;557;48.466;7.950;2022-12-11T17:48:06;0.10;21.20
1137;DHT22;557;48.466;7.950;2022-12-11T17:50:52;0.20;1.00
1137;DHT22;557;48.466;7.950;2022-12-11T17:53:37;0.10;1.00
1137;DHT22;557;48.466;7.950;2022-12-11T17:56:24;0.10;1.00
1137;DHT22;557;48.466;7.950;2022-12-11T17:59:11;0.00;1.00
1137;DHT22;557;48.466;7.950;2022-12-11T18:01:56;0.00;1.00
1137;DHT22;557;48.466;7.950;2022-12-11T18:04:43;0.00;1.00
1137;DHT22;557;48.466;7.950;2022-12-11T18:07:29;-0.10;1.00
1137;DHT22;557;48.466;7.950;2022-12-11T18:10:14;-0.20;1.00
1137;DHT22;557;48.466;7.950;2022-12-11T18:13:00;-0.20;11.70
1137;DHT22;557;48.466;7.950;2022-12-11T18:15:58;-0.30;10.80
1137;DHT22;557;48.466;7.950;2022-12-11T18:18:44;-0.30;30.60
1137;DHT22;557;48.466;7.950;2022-12-11T18:21:32;-0.30;31.30
1137;DHT22;557;48.466;7.950;2022-12-11T18:24:19;-0.30;21.20
1137;DHT22;557;48.466;7.950;2022-12-11T18:27:05;-0.30;17.20
1137;DHT22;557;48.466;7.950;2022-12-11T18:29:54;-0.30;14.00
1137;DHT22;557;48.466;7.950;2022-12-11T18:32:41;-0.30;10.40
1137;DHT22;557;48.466;7.950;2022-12-11T18:35:27;-0.30;6.90
1137;DHT22;557;48.466;7.950;2022-12-11T18:38:13;-0.40;9.60
1137;DHT22;557;48.466;7.950;2022-12-11T18:41:01;-0.40;32.90
1137;DHT22;557;48.466;7.950;2022-12-11T18:43:47;-0.40;26.20
1137;DHT22;557;48.466;7.950;2022-12-11T18:46:32;-0.40;16.20
1137;DHT22;557;48.466;7.950;2022-12-11T18:49:19;-0.50;32.50
1137;DHT22;557;48.466;7.950;2022-12-11T18:52:05;-0.60;35.50
1137;DHT22;557;48.466;7.950;2022-12-11T18:54:50;-0.40;99.90
1137;DHT22;557;48.466;7.950;2022-12-11T18:57:36;-0.40;96.60
1137;DHT22;557;48.466;7.950;2022-12-11T19:00:22;-0.30;95.70
1137;DHT22;557;48.466;7.950;2022-12-11T19:03:10;-0.30;44.30
1137;DHT22;557;48.466;7.950;2022-12-11T19:06:05;-0.30;30.30
1137;DHT22;557;48.466;7.950;2022-12-11T19:08:51;-0.40;28.40
1137;DHT22;557;48.466;7.950;2022-12-11T19:11:38;-0.40;38.40
1137;DHT22;557;48.466;7.950;2022-12-11T19:14:24;-0.30;25.10
1137;DHT22;557;48.466;7.950;2022-12-11T19:17:09;-0.40;16.20
1137;DHT22;557;48.466;7.950;2022-12-11T19:19:55;-0.40;21.60
1137;DHT22;557;48.466;7.950;2022-12-11T19:22:42;-0.40;31.60
1137;DHT22;557;48.466;7.950;2022-12-11T19:25:28;-0.50;51.90
1137;DHT22;557;48.466;7.950;2022-12-11T19:28:14;-0.60;29.80
1137;DHT22;557;48.466;7.950;2022-12-11T19:30:59;-0.60;24.30
1137;DHT22;557;48.466;7.950;2022-12-11T19:33:49;-0.60;22.40
1137;DHT22;557;48.466;7.950;2022-12-11T19:36:35;-0.50;39.10
1137;DHT22;557;48.466;7.950;2022-12-11T19:39:22;-0.60;29.70
1137;DHT22;557;48.466;7.950;2022-12-11T19:42:08;-0.60;44.20
1137;DHT22;557;48.466;7.950;2022-12-11T19:44:53;-0.50;45.30
1137;DHT22;557;48.466;7.950;2022-12-11T19:47:38;-0.50;36.20
1137;DHT22;557;48.466;7.950;2022-12-11T19:50:24;-0.50;42.50
1137;DHT22;557;48.466;7.950;2022-12-11T19:53:16;-0.60;42.20
1137;DHT22;557;48.466;7.950;2022-12-11T19:56:04;-0.60;43.80
1137;DHT22;557;48.466;7.950;2022-12-11T19:58:50;-0.50;53.70
1137;DHT22;557;48.466;7.950;2022-12-11T20:01:36;-0.50;50.00
1137;DHT22;557;48.466;7.950;2022-12-11T20:04:22;-0.50;19.10
1137;DHT22;557;48.466;7.950;2022-12-11T20:07:07;-0.60;20.50
1137;DHT22;557;48.466;7.950;2022-12-11T20:09:53;-0.70;46.20
1137;DHT22;557;48.466;7.950;2022-12-11T20:12:41;-0.70;65.40
1137;DHT22;557;48.466;7.950;2022-12-11T20:15:27;-0.80;62.00
1137;DHT22;557;48.466;7.950;2022-12-11T20:18:13;-0.80;84.90
1137;DHT22;557;48.466;7.950;2022-12-11T20:20:59;-0.60;89.00
1137;DHT22;557;48.466;7.950;2022-12-11T20:23:46;-0.60;92.40
1137;DHT22;557;48.466;7.950;2022-12-11T20:26:32;-0.60;63.10
1137;DHT22;557;48.466;7.950;2022-12-11T20:29:20;-0.60;52.70
1137;DHT22;557;48.466;7.950;2022-12-11T20:32:06;-0.80;55.40
1137;DHT22;557;48.466;7.950;2022-12-11T20:34:54;-0.70;94.40
1137;DHT22;557;48.466;7.950;2022-12-11T20:37:40;-0.70;63.50
1137;DHT22;557;48.466;7.950;2022-12-11T20:40:26;-0.60;71.90
1137;DHT22;557;48.466;7.950;2022-12-11T20:43:12;-0.60;50.30
1137;DHT22;557;48.466;7.950;2022-12-11T20:46:00;-0.60;90.10
1137;DHT22;557;48.466;7.950;2022-12-11T20:48:46;-0.50;93.20
1137;DHT22;557;48.466;7.950;2022-12-11T20:51:32;-0.40;92.60
1137;DHT22;557;48.466;7.950;2022-12-11T20:54:18;-0.60;33.00
1137;DHT22;557;48.466;7.950;2022-12-11T20:57:03;-0.50;64.90
1137;DHT22;557;48.466;7.950;2022-12-11T20:59:49;-0.50;52.00
1137;DHT22;557;48.466;7.950;2022-12-11T21:02:42;-0.40;87.50
1137;DHT22;557;48.466;7.950;2022-12-11T21:05:27;-0.40;82.60
1137;DHT22;557;48.466;7.950;2022-12-11T21:08:13;-0.30;57.20
1137;DHT22;557;48.466;7.950;2022-12-11T21:10:59;-0.40;49.70
1137;DHT22;557;48.466;7.950;2022-12-11T21:13:44;-0.30;37.20
1137;DHT22;557;48.466;7.950;2022-12-11T21:16:30;-0.40;10.00
1137;DHT22;557;48.466;7.950;2022-12-11T21:19:17;-0.50;9.30
1137;DHT22;557;48.466;7.950;2022-12-11T21:22:03;-0.50;17.40
1137;DHT22;557;48.466;7.950;2022-12-11T21:24:48;-0.50;38.70
1137;DHT22;557;48.466;7.950;2022-12-11T21:27:34;-0.50;36.00
1137;DHT22;557;48.466;7.950;2022-12-11T21:30:19;-0.50;61.90
1137;DHT22;557;48.466;7.950;2022-12-11T21:33:06;-0.50;52.40
1137;DHT22;557;48.466;7.950;2022-12-11T21:35:54;-0.40;81.30
1137;DHT22;557;48.466;7.950;2022-12-11T21:38:41;-0.30;12.90
1137;DHT22;557;48.466;7.950;2022-12-11T21:41:28;-0.30;18.70
1137;DHT22;557;48.466;7.950;2022-12-11T21:44:13;-0.40;1.00
1137;DHT22;557;48.466;7.950;2022-12-11T21:46:59;-0.40;1.00
1137;DHT22;557;48.466;7.950;2022-12-11T21:49:59;-0.50;1.00
1137;DHT22;557;48.466;7.950;2022-12-11T21:52:47;-0.60;8.30
1137;DHT22;557;48.466;7.950;2022-12-11T21:55:32;-0.60;12.40
1137;DHT22;557;48.466;7.950;2022-12-11T21:58:18;-0.60;13.00
1137;DHT22;557;48.466;7.950;2022-12-11T22:01:04;-0.50;1.00
1137;DHT22;557;48.466;7.950;2022-12-11T22:03:51;-0.60;1.00
1137;DHT22;557;48.466;7.950;2022-12-11T22:06:36;-0.60;1.00
1137;DHT22;557;48.466;7.950;2022-12-11T22:09:25;-0.70;1.00
1137;DHT22;557;48.466;7.950;2022-12-11T22:12:16;-0.70;36.80
1137;DHT22;557;48.466;7.950;2022-12-11T22:15:05;-0.60;52.70
1137;DHT22;557;48.466;7.950;2022-12-11T22:17:51;-0.60;75.00
1137;DHT22;557;48.466;7.950;2022-12-11T22:20:37;-0.50;87.40
1137;DHT22;557;48.466;7.950;2022-12-11T22:23:22;-0.40;90.00
1137;DHT22;557;48.466;7.950;2022-12-11T22:26:13;-0.40;63.80
1137;DHT22;557;48.466;7.950;2022-12-11T22:28:59;-0.40;38.40
1137;DHT22;557;48.466;7.950;2022-12-11T22:31:46;-0.50;24.20
1137;DHT22;557;48.466;7.950;2022-12-11T22:34:31;-0.60;27.70
1137;DHT22;557;48.466;7.950;2022-12-11T22:37:17;-0.60;29.10
1137;DHT22;557;48.466;7.950;2022-12-11T22:40:04;-0.60;29.50
1137;DHT22;557;48.466;7.950;2022-12-11T22:42:51;-0.70;29.60
1137;DHT22;557;48.466;7.950;2022-12-11T22:45:39;-0.80;28.30
1137;DHT22;557;48.466;7.950;2022-12-11T22:48:26;-0.80;28.70
1137;DHT22;557;48.466;7.950;2022-12-11T22:51:11;-1.00;6.10
1137;DHT22;557;48.466;7.950;2022-12-11T22:53:57;-0.90;33.00
1137;DHT22;557;48.466;7.950;2022-12-11T22:56:43;-0.80;39.90
1137;DHT22;557;48.466;7.950;2022-12-11T22:59:30;-0.90;31.20
1137;DHT22;557;48.466;7.950;2022-12-11T23:02:16;-1.00;20.90
1137;DHT22;557;48.466;7.950;2022-12-11T23:05:01;-1.20;24.80
1137;DHT22;557;48.466;7.950;2022-12-11T23:07:47;-1.10;59.40
1137;DHT22;557;48.466;7.950;2022-12-11T23:10:33;-1.00;49.70
1137;DHT22;557;48.466;7.950;2022-12-11T23:13:23;-1.00;31.40
1137;DHT22;557;48.466;7.950;2022-12-11T23:16:11;-1.30;1.00
1137;DHT22;557;48.466;7.950;2022-12-11T23:18:57;-1.50;1.00
1137;DHT22;557;48.466;7.950;2022-12-11T23:21:43;-1.70;10.90
1137;DHT22;557;48.466;7.950;2022-12-11T23:24:28;-1.60;53.20
1137;DHT22;557;48.466;7.950;2022-12-11T23:27:14;-1.80;31.30
1137;DHT22;557;48.466;7.950;2022-12-11T23:30:04;-1.90;29.50
1137;DHT22;557;48.466;7.950;2022-12-11T23:32:51;-1.90;73.70
1137;DHT22;557;48.466;7.950;2022-12-11T23:35:37;-1.80;67.20
1137;DHT22;557;48.466;7.950;2022-12-11T23:38:23;-1.80;61.00
1137;DHT22;557;48.466;7.950;2022-12-11T23:41:11;-1.90;68.30
1137;DHT22;557;48.466;7.950;2022-12-11T23:44:00;-2.00;69.30
1137;DHT22;557;48.466;7.950;2022-12-11T23:46:46;-2.10;92.80
1137;DHT22;557;48.466;7.950;2022-12-11T23:49:33;-2.20;96.60
1137;DHT22;557;48.466;7.950;2022-12-11T23:52:19;-2.30;92.80
1137;DHT22;557;48.466;7.950;2022-12-11T23:55:06;-2.30;95.30
1137;DHT22;557;48.466;7.950;2022-12-11T23:57:52;-2.40;98.60
